Time;durP1;ratioP1;P1;durP2;ratioP2;P2;SDS_P1;SDS_P2;PMS_P1;PMS_P2;Temp;Humidity;BMP_temperature;BMP_pressure;BME280_temperature;BME280_humidity;BME280_pressure;Samples;Min_cycle;Max_cycle;Signal;HPM_P1;HPM_P2
2022/05/31 00:00:24;;;;;;;;;;;;;;;10.24;61.86;97009.56;6245781;28;19921;-68
2022/05/31 00:03:28;;;;;;;;;;;;;;;10.27;61.11;97010.25;6245576;28;20419;-68
2022/05/31 00:06:29;;;;;;;;;;;;;;;10.18;61.41;97005.53;6245917;28;19921;-68
2022/05/31 00:09:30;;;;;;;;;;;;;;;10.15;61.21;96999.63;6246002;28;19924;-68
2022/05/31 00:12:35;;;;;;;;;;;;;;;10.14;61.33;97001.41;6245833;28;19964;-68
2022/05/31 00:15:38;;;;;;;;;;;;;;;10.33;60.32;97004.63;6245590;28;19921;-68
2022/05/31 00:18:41;;;;;;;;;;;;;;;10.40;59.77;97004.25;6245612;28;20348;-68
2022/05/31 00:22:04;;;;;;;;;;;;;;;10.27;59.99;97005.00;6245830;28;19917;-68
2022/05/31 00:25:08;;;;;;;;;;;;;;;10.29;59.94;96992.59;6245719;28;19921;-68
2022/05/31 00:28:15;;;;;;;;;;;;;;;10.33;59.90;96988.84;6244865;28;19917;-68
2022/05/31 00:31:16;;;;;;;;;;;;;;;10.34;59.90;96998.44;6245442;28;19921;-68
2022/05/31 00:34:22;;;;;;;;;;;;;;;10.34;59.84;96995.78;6245534;28;19921;-68
2022/05/31 00:37:25;;;;;;;;;;;;;;;10.48;59.58;96988.84;6245809;28;19921;-68
2022/05/31 00:40:30;;;;;;;;;;;;;;;10.41;59.75;96996.25;6250034;28;19925;-68
2022/05/31 00:43:31;;;;;;;;;;;;;;;10.53;59.67;96984.97;6250273;28;19920;-68
2022/05/31 00:46:51;;;;;;;;;;;;;;;10.62;59.14;96994.09;6250423;28;19928;-67
2022/05/31 00:50:00;;;;;;;;;;;;;;;10.55;59.34;96990.13;6250374;28;20415;-67
2022/05/31 00:53:03;;;;;;;;;;;;;;;10.62;59.14;96993.25;6250044;28;19925;-68
2022/05/31 00:56:12;;;;;;;;;;;;;;;10.56;59.26;96997.94;6250346;28;19921;-68
2022/05/31 00:59:18;;;;;;;;;;;;;;;10.70;58.97;96991.81;6250396;28;19921;-68
2022/05/31 01:02:20;;;;;;;;;;;;;;;10.84;58.59;96992.69;6249977;28;19928;-69
2022/05/31 01:05:21;;;;;;;;;;;;;;;10.87;58.26;96998.63;6249818;28;20292;-67
2022/05/31 01:08:24;;;;;;;;;;;;;;;10.91;58.12;96999.28;6249745;28;19921;-68
2022/05/31 01:11:29;;;;;;;;;;;;;;;10.99;57.88;96997.84;6249833;28;19920;-67
2022/05/31 01:14:33;;;;;;;;;;;;;;;10.99;57.77;96997.00;6249547;28;19920;-68
2022/05/31 01:17:36;;;;;;;;;;;;;;;11.00;57.92;97002.16;6249414;28;19921;-68
2022/05/31 01:20:38;;;;;;;;;;;;;;;11.03;57.85;96993.22;6249676;28;20304;-69
2022/05/31 01:23:51;;;;;;;;;;;;;;;11.09;57.91;96995.44;6249397;28;19921;-66
2022/05/31 01:27:14;;;;;;;;;;;;;;;11.10;57.92;96994.50;6249571;28;19917;-66
2022/05/31 01:30:17;;;;;;;;;;;;;;;11.17;57.58;97001.06;6249165;28;19921;-67
2022/05/31 01:33:23;;;;;;;;;;;;;;;11.19;57.40;96999.19;6249035;28;19928;-67
2022/05/31 01:36:31;;;;;;;;;;;;;;;11.26;57.41;96993.50;6249103;28;19936;-68
2022/05/31 01:39:37;;;;;;;;;;;;;;;11.46;56.80;96993.03;6248945;28;19923;-67
2022/05/31 01:42:46;;;;;;;;;;;;;;;11.51;56.27;96998.84;6248980;28;19928;-68
2022/05/31 01:45:54;;;;;;;;;;;;;;;11.66;55.64;97005.72;6249181;28;20395;-67
2022/05/31 01:48:59;;;;;;;;;;;;;;;11.79;54.88;97003.09;6248562;28;19932;-67
2022/05/31 01:52:04;;;;;;;;;;;;;;;11.82;54.92;97005.53;6247279;28;19927;-67
2022/05/31 01:55:08;;;;;;;;;;;;;;;11.82;54.98;97008.16;6248717;28;20019;-67
2022/05/31 01:58:13;;;;;;;;;;;;;;;11.94;54.51;97014.44;6248657;28;19943;-67
2022/05/31 02:01:15;;;;;;;;;;;;;;;12.03;54.27;97016.47;6248698;28;20293;-67
2022/05/31 02:04:17;;;;;;;;;;;;;;;12.08;54.24;97009.03;6248651;28;19927;-68
2022/05/31 02:07:23;;;;;;;;;;;;;;;12.20;53.87;97006.50;6248761;28;19921;-68
2022/05/31 02:10:25;;;;;;;;;;;;;;;12.30;53.34;97004.94;6248634;28;19925;-68
2022/05/31 02:13:26;;;;;;;;;;;;;;;12.45;52.86;97000.38;6247870;28;20325;-68
2022/05/31 02:16:32;;;;;;;;;;;;;;;12.48;52.69;96995.75;6247881;28;19975;-68
2022/05/31 02:19:33;;;;;;;;;;;;;;;12.57;52.33;97004.81;6247927;28;20300;-68
2022/05/31 02:22:34;;;;;;;;;;;;;;;12.71;52.27;97006.44;6247723;28;19921;-68
2022/05/31 02:25:38;;;;;;;;;;;;;;;12.71;52.51;97022.28;6247662;28;19921;-68
2022/05/31 02:28:43;;;;;;;;;;;;;;;12.89;52.07;97017.50;6247948;28;20424;-68
2022/05/31 02:31:49;;;;;;;;;;;;;;;12.87;51.98;97012.31;6247543;28;19921;-67
2022/05/31 02:34:53;;;;;;;;;;;;;;;13.06;50.53;97016.28;6247528;28;20443;-67
2022/05/31 02:37:55;;;;;;;;;;;;;;;13.01;50.85;97020.09;6247346;28;19924;-67
2022/05/31 02:41:02;;;;;;;;;;;;;;;13.07;50.53;97024.09;6247462;28;20300;-67
2022/05/31 02:44:09;;;;;;;;;;;;;;;13.13;50.21;97012.22;6247612;28;19920;-67
2022/05/31 02:47:10;;;;;;;;;;;;;;;13.20;49.87;97014.31;6247552;28;19927;-69
2022/05/31 02:50:11;;;;;;;;;;;;;;;13.36;49.08;97019.38;6246790;28;19921;-68
2022/05/31 02:53:15;;;;;;;;;;;;;;;13.40;48.93;97010.25;6246727;28;20023;-68
2022/05/31 02:56:16;;;;;;;;;;;;;;;13.43;48.98;97015.31;6246917;28;20086;-68
2022/05/31 02:59:17;;;;;;;;;;;;;;;13.40;49.25;97012.03;6245855;28;19916;-68
2022/05/31 03:02:18;;;;;;;;;;;;;;;13.48;49.13;97010.53;6246522;28;19928;-67
2022/05/31 03:05:19;;;;;;;;;;;;;;;13.55;49.11;97012.69;6246819;28;20300;-68
2022/05/31 03:08:25;;;;;;;;;;;;;;;13.77;48.44;97011.94;6246798;28;19921;-67
2022/05/31 03:11:34;;;;;;;;;;;;;;;13.89;47.77;97011.84;6246554;28;20395;-69
2022/05/31 03:15:09;;;;;;;;;;;;;;;14.00;47.26;97024.25;6246449;28;20559;-68
2022/05/31 03:18:14;;;;;;;;;;;;;;;14.02;47.13;97013.56;6244420;28;20003;-67
2022/05/31 03:21:21;;;;;;;;;;;;;;;14.14;46.99;97012.63;6246463;28;19931;-67
2022/05/31 03:24:27;;;;;;;;;;;;;;;14.19;46.97;97001.69;6246281;28;19917;-68
2022/05/31 03:27:28;;;;;;;;;;;;;;;14.29;46.74;97007.94;6245996;28;19927;-68
2022/05/31 03:30:30;;;;;;;;;;;;;;;14.42;46.53;97002.53;6246247;28;19921;-68
2022/05/31 03:33:33;;;;;;;;;;;;;;;14.56;46.06;97010.28;6246356;28;20022;-68
2022/05/31 03:36:37;;;;;;;;;;;;;;;14.62;46.02;96996.53;6246124;28;19956;-67
2022/05/31 03:39:43;;;;;;;;;;;;;;;14.74;45.59;97007.97;6246357;28;19920;-68
2022/05/31 03:42:44;;;;;;;;;;;;;;;14.82;45.12;96995.78;6246101;28;19931;-68
2022/05/31 03:45:45;;;;;;;;;;;;;;;14.89;45.03;96984.69;6245692;28;19921;-69
2022/05/31 03:48:48;;;;;;;;;;;;;;;15.03;44.58;96987.06;6245966;28;19932;-69
2022/05/31 03:51:49;;;;;;;;;;;;;;;15.10;44.27;96993.56;6245934;28;20019;-69
2022/05/31 03:54:53;;;;;;;;;;;;;;;15.21;43.76;96980.28;6246006;28;20016;-69
2022/05/31 03:57:54;;;;;;;;;;;;;;;15.27;43.63;96974.47;6245894;28;19982;-68
2022/05/31 04:00:55;;;;;;;;;;;;;;;15.35;43.63;96991.59;6245755;28;19932;-69
2022/05/31 04:03:59;;;;;;;;;;;;;;;15.35;43.49;96986.28;6245668;28;19925;-68
2022/05/31 04:07:00;;;;;;;;;;;;;;;15.40;43.27;96973.47;6244720;28;19925;-68
2022/05/31 04:10:03;;;;;;;;;;;;;;;15.38;43.82;96962.16;6245671;28;19943;-68
2022/05/31 04:13:04;;;;;;;;;;;;;;;15.42;43.50;96950.31;6246175;28;19921;-68
2022/05/31 04:16:07;;;;;;;;;;;;;;;15.53;42.88;96957.38;6251223;28;19925;-67
2022/05/31 04:19:08;;;;;;;;;;;;;;;15.68;42.28;96959.63;6250075;28;19928;-67
2022/05/31 04:22:13;;;;;;;;;;;;;;;15.82;41.81;96952.31;6250442;28;20063;-67
2022/05/31 04:25:17;;;;;;;;;;;;;;;15.79;42.01;96941.97;6250530;28;19920;-68
2022/05/31 04:28:21;;;;;;;;;;;;;;;15.92;41.81;96943.44;6250500;28;19921;-67
2022/05/31 04:31:27;;;;;;;;;;;;;;;16.00;41.59;96945.44;6250384;28;19921;-68
2022/05/31 04:34:30;;;;;;;;;;;;;;;16.04;41.29;96933.56;6250195;28;19921;-67
2022/05/31 04:37:36;;;;;;;;;;;;;;;16.23;41.17;96951.44;6250191;28;19920;-67
2022/05/31 04:40:44;;;;;;;;;;;;;;;17.66;38.57;96949.31;6250224;28;20319;-69
2022/05/31 04:43:45;;;;;;;;;;;;;;;20.16;34.72;96936.53;6250155;28;20307;-68
2022/05/31 04:46:48;;;;;;;;;;;;;;;22.67;31.43;96949.78;6249907;28;19928;-68
2022/05/31 04:49:52;;;;;;;;;;;;;;;24.68;27.45;96939.75;6249929;28;19917;-68
2022/05/31 04:52:53;;;;;;;;;;;;;;;26.41;26.02;96950.47;6249792;28;19988;-68
2022/05/31 04:56:04;;;;;;;;;;;;;;;28.38;23.56;96955.03;6249770;28;19921;-66
2022/05/31 04:59:07;;;;;;;;;;;;;;;30.55;21.43;96947.06;6250187;28;19948;-67
2022/05/31 05:02:11;;;;;;;;;;;;;;;32.18;19.41;96959.81;6249586;28;19925;-67
2022/05/31 05:05:18;;;;;;;;;;;;;;;33.32;18.65;96958.59;6249732;28;20449;-68
2022/05/31 05:08:22;;;;;;;;;;;;;;;34.28;16.98;96966.91;6249892;28;19921;-68
2022/05/31 05:11:24;;;;;;;;;;;;;;;35.52;16.18;96959.34;6249931;28;19917;-68
2022/05/31 05:14:29;;;;;;;;;;;;;;;36.17;15.02;96961.13;6249711;28;19921;-67
2022/05/31 05:17:36;;;;;;;;;;;;;;;36.67;14.49;96952.75;6249265;28;20342;-68
2022/05/31 05:20:39;;;;;;;;;;;;;;;37.27;13.44;96951.44;6249148;28;19920;-67
2022/05/31 05:23:45;;;;;;;;;;;;;;;37.02;13.31;96958.47;6249063;28;19921;-67
2022/05/31 05:26:47;;;;;;;;;;;;;;;37.11;13.62;96936.00;6248116;28;19999;-67
2022/05/31 05:33:11;;;;;;;;;;;;;;;36.60;14.21;96937.38;6249125;28;20410;-68
2022/05/31 05:36:14;;;;;;;;;;;;;;;33.64;15.31;96942.59;6248995;28;19946;-68
2022/05/31 05:39:20;;;;;;;;;;;;;;;30.33;17.80;96928.47;6249153;28;19921;-67
2022/05/31 05:42:26;;;;;;;;;;;;;;;32.27;16.18;96918.63;6248904;28;20396;-68
2022/05/31 05:45:27;;;;;;;;;;;;;;;34.07;15.26;96915.78;6247184;28;19960;-69
2022/05/31 05:48:31;;;;;;;;;;;;;;;35.69;14.23;96921.78;6248837;28;19921;-68
2022/05/31 05:51:35;;;;;;;;;;;;;;;36.99;13.24;96923.31;6248674;28;19964;-67
2022/05/31 05:54:36;;;;;;;;;;;;;;;37.09;12.92;96928.06;6248461;28;19924;-68
2022/05/31 05:57:37;;;;;;;;;;;;;;;36.64;12.73;96905.59;6248563;28;19936;-68
2022/05/31 06:00:41;;;;;;;;;;;;;;;37.69;12.08;96898.31;6248525;28;19952;-67
2022/05/31 06:03:47;;;;;;;;;;;;;;;37.74;11.91;96898.34;6248625;28;19921;-67
2022/05/31 06:06:54;;;;;;;;;;;;;;;37.74;12.09;96918.38;6248636;28;19917;-68
2022/05/31 06:09:59;;;;;;;;;;;;;;;38.05;11.99;96895.59;6248573;28;20011;-68
2022/05/31 06:13:06;;;;;;;;;;;;;;;38.48;11.33;96909.91;6247811;28;19920;-67
2022/05/31 06:16:08;;;;;;;;;;;;;;;38.40;11.84;96898.34;6247772;28;19936;-67
2022/05/31 06:19:14;;;;;;;;;;;;;;;38.61;11.76;96909.31;6248120;28;19921;-68
2022/05/31 06:22:19;;;;;;;;;;;;;;;39.15;11.16;96932.53;6247662;28;19917;-68
2022/05/31 06:25:23;;;;;;;;;;;;;;;36.58;12.72;96898.44;6247767;28;19925;-67
2022/05/31 06:28:25;;;;;;;;;;;;;;;34.24;14.15;96899.38;6247814;28;19932;-67
2022/05/31 06:31:28;;;;;;;;;;;;;;;31.51;16.21;96902.03;6247570;28;19920;-69
2022/05/31 06:34:29;;;;;;;;;;;;;;;29.77;17.93;96894.06;6247270;28;20015;-68
2022/05/31 06:37:30;;;;;;;;;;;;;;;29.64;18.04;96896.88;6246180;28;19921;-68
2022/05/31 06:40:31;;;;;;;;;;;;;;;30.04;17.81;96900.13;6247208;28;20423;-68
2022/05/31 06:43:35;;;;;;;;;;;;;;;30.42;17.70;96891.84;6247273;28;20414;-68
2022/05/31 06:46:39;;;;;;;;;;;;;;;31.22;17.03;96893.59;6247486;28;19921;-69
2022/05/31 06:49:41;;;;;;;;;;;;;;;30.27;17.63;96891.38;6247102;28;19936;-68
2022/05/31 06:59:28;;;;;;;;;;;;;;;27.67;19.79;96888.88;6246895;28;20362;-69
2022/05/31 07:02:32;;;;;;;;;;;;;;;26.40;21.24;96903.75;6246656;28;19916;-69
2022/05/31 07:05:35;;;;;;;;;;;;;;;25.67;22.70;96880.81;6247096;28;20343;-69
2022/05/31 07:08:38;;;;;;;;;;;;;;;25.06;23.00;96883.94;6246739;28;19925;-68
2022/05/31 07:11:42;;;;;;;;;;;;;;;24.35;24.07;96875.56;6246307;28;19928;-70
2022/05/31 07:14:43;;;;;;;;;;;;;;;23.59;24.93;96886.38;6246455;28;20000;-68
2022/05/31 07:17:46;;;;;;;;;;;;;;;23.02;25.22;96905.56;6246480;28;20295;-68
2022/05/31 07:20:49;;;;;;;;;;;;;;;22.66;26.02;96878.41;6246560;28;19929;-69
2022/05/31 07:23:53;;;;;;;;;;;;;;;22.46;26.39;96881.50;6246399;28;20307;-68
2022/05/31 07:26:56;;;;;;;;;;;;;;;22.74;26.29;96876.50;6246422;28;19928;-68
2022/05/31 07:29:58;;;;;;;;;;;;;;;24.84;23.80;96891.13;6246641;28;20415;-67
2022/05/31 07:32:59;;;;;;;;;;;;;;;26.83;21.83;96882.00;6246157;28;20344;-68
2022/05/31 07:36:05;;;;;;;;;;;;;;;27.36;20.81;96880.53;6246386;28;19921;-69
2022/05/31 07:39:09;;;;;;;;;;;;;;;26.13;21.86;96874.97;6246215;28;19932;-68
2022/05/31 07:42:15;;;;;;;;;;;;;;;25.57;22.73;96880.31;6246218;28;19921;-68
2022/05/31 07:45:18;;;;;;;;;;;;;;;24.79;23.12;96882.78;6245911;28;19920;-68
2022/05/31 07:48:21;;;;;;;;;;;;;;;23.84;24.40;96883.50;6245776;28;19920;-69
2022/05/31 07:51:26;;;;;;;;;;;;;;;23.06;25.35;96882.72;6245947;28;19928;-68
2022/05/31 07:54:30;;;;;;;;;;;;;;;22.71;26.11;96874.19;6245689;28;20392;-69
2022/05/31 08:00:56;;;;;;;;;;;;;;;22.55;26.86;96893.84;6246053;28;20315;-69
2022/05/31 08:03:57;;;;;;;;;;;;;;;22.47;27.08;96877.81;6245778;28;19920;-68
2022/05/31 08:06:59;;;;;;;;;;;;;;;21.81;27.75;96889.69;6244544;28;19921;-68
2022/05/31 08:10:03;;;;;;;;;;;;;;;21.75;28.03;96885.84;6245399;28;19921;-67
2022/05/31 08:13:07;;;;;;;;;;;;;;;21.74;28.16;96878.81;6245484;28;19927;-68
2022/05/31 08:16:12;;;;;;;;;;;;;;;21.82;27.51;96891.34;6245264;28;19964;-69
2022/05/31 08:19:15;;;;;;;;;;;;;;;23.06;26.18;96875.50;6245493;28;19921;-67
2022/05/31 08:22:19;;;;;;;;;;;;;;;26.63;22.70;96897.28;6245867;28;20030;-68
2022/05/31 08:25:24;;;;;;;;;;;;;;;26.93;21.44;96907.81;6245540;28;19920;-67
2022/05/31 08:28:28;;;;;;;;;;;;;;;28.74;19.54;96910.44;6245741;28;19928;-68
2022/05/31 08:31:33;;;;;;;;;;;;;;;30.09;18.59;96913.84;6245487;28;19920;-68
2022/05/31 08:34:35;;;;;;;;;;;;;;;31.41;16.45;96912.63;6245880;28;20311;-68
2022/05/31 08:37:36;;;;;;;;;;;;;;;31.48;17.09;96906.06;6245444;28;19927;-67
2022/05/31 08:41:00;;;;;;;;;;;;;;;31.74;16.58;96904.81;6245484;28;19920;-67
2022/05/31 08:44:07;;;;;;;;;;;;;;;32.46;16.39;96906.56;6245596;28;19925;-66
2022/05/31 08:47:19;;;;;;;;;;;;;;;31.81;16.04;96904.69;6245482;28;19928;-67
2022/05/31 08:56:56;;;;;;;;;;;;;;;30.64;17.59;96902.25;6245054;28;19927;-66
2022/05/31 08:57:13;;;;;;;;;;;;;;;31.82;16.25;96900.09;6245121;28;20395;-67
2022/05/31 09:00:21;;;;;;;;;;;;;;;30.39;17.39;96918.59;6247208;28;19921;-67
2022/05/31 09:03:28;;;;;;;;;;;;;;;31.09;16.49;96912.84;6249643;28;19921;-66
2022/05/31 09:06:38;;;;;;;;;;;;;;;32.37;15.87;96913.44;6249461;28;19943;-68
2022/05/31 09:09:46;;;;;;;;;;;;;;;32.29;15.65;96900.16;6249734;28;19928;-67
2022/05/31 09:12:52;;;;;;;;;;;;;;;30.59;16.90;96916.50;6249377;28;20010;-67
2022/05/31 09:16:09;;;;;;;;;;;;;;;30.92;16.94;96928.09;6249061;28;19928;-67
2022/05/31 09:19:13;;;;;;;;;;;;;;;29.42;18.32;96913.47;6249275;28;19921;-67
2022/05/31 09:22:18;;;;;;;;;;;;;;;29.40;18.53;96915.56;6249164;28;20117;-67
2022/05/31 09:25:21;;;;;;;;;;;;;;;30.80;17.33;96915.28;6248967;28;20383;-66
2022/05/31 09:28:30;;;;;;;;;;;;;;;31.79;16.55;96927.75;6248876;28;19920;-67
2022/05/31 09:31:48;;;;;;;;;;;;;;;30.90;17.04;96922.06;6248687;28;19924;-67
2022/05/31 09:34:56;;;;;;;;;;;;;;;27.85;20.21;96900.97;6247242;28;20189;-68
2022/05/31 09:37:59;;;;;;;;;;;;;;;26.68;21.28;96889.41;6248724;28;20427;-67
2022/05/31 09:41:06;;;;;;;;;;;;;;;26.71;21.48;96905.22;6249093;28;19921;-68
2022/05/31 09:44:14;;;;;;;;;;;;;;;27.44;20.54;96904.66;6249207;28;19967;-67
2022/05/31 09:47:17;;;;;;;;;;;;;;;28.30;19.96;96909.25;6248680;28;20412;-68
2022/05/31 09:50:26;;;;;;;;;;;;;;;29.88;18.99;96900.66;6249012;28;19959;-68
2022/05/31 09:57:07;;;;;;;;;;;;;;;28.01;20.60;96916.78;6248413;28;19921;-67
2022/05/31 10:00:16;;;;;;;;;;;;;;;26.77;22.16;96904.41;6248730;28;19928;-67
2022/05/31 10:03:17;;;;;;;;;;;;;;;25.77;23.01;96908.28;6248581;28;19921;-67
2022/05/31 10:06:19;;;;;;;;;;;;;;;26.99;21.85;96909.69;6248205;28;20285;-68
2022/05/31 10:09:28;;;;;;;;;;;;;;;27.29;21.49;96913.78;6247874;28;19932;-68
2022/05/31 10:12:34;;;;;;;;;;;;;;;27.68;21.32;96914.84;6248082;28;19932;-68
2022/05/31 10:15:46;;;;;;;;;;;;;;;28.71;20.04;96922.53;6247619;28;19920;-67
2022/05/31 10:19:00;;;;;;;;;;;;;;;28.40;20.56;96923.19;6247865;28;20011;-67
2022/05/31 10:22:18;;;;;;;;;;;;;;;26.93;21.91;96932.09;6248229;28;19921;-67
2022/05/31 10:25:19;;;;;;;;;;;;;;;25.33;23.79;96920.06;6247792;28;20295;-68
2022/05/31 10:28:40;;;;;;;;;;;;;;;24.31;25.12;96928.88;6247817;28;20051;-67
2022/05/31 10:31:47;;;;;;;;;;;;;;;23.67;26.19;96942.72;6247824;28;19921;-67
2022/05/31 10:35:04;;;;;;;;;;;;;;;23.55;26.53;96928.00;6247624;28;19929;-68
2022/05/31 10:38:10;;;;;;;;;;;;;;;23.27;27.08;96936.63;6246313;28;19927;-68
2022/05/31 10:41:31;;;;;;;;;;;;;;;23.42;27.24;96938.53;6247302;28;19920;-67
2022/05/31 10:45:02;;;;;;;;;;;;;;;23.94;26.60;96932.44;6247175;28;19921;-69
2022/05/31 10:48:06;;;;;;;;;;;;;;;23.01;27.19;96930.72;6246850;28;20384;-67
2022/05/31 10:51:11;;;;;;;;;;;;;;;22.68;27.77;96930.88;6247264;28;19921;-68
2022/05/31 10:54:31;;;;;;;;;;;;;;;23.47;26.95;96931.63;6246998;28;20388;-68
2022/05/31 10:57:41;;;;;;;;;;;;;;;24.56;25.38;96932.16;6246758;28;19963;-69
2022/05/31 11:00:50;;;;;;;;;;;;;;;25.92;23.98;96938.69;6247009;28;19928;-68
2022/05/31 11:04:07;;;;;;;;;;;;;;;26.78;22.98;96949.28;6245236;28;20427;-68
2022/05/31 11:07:14;;;;;;;;;;;;;;;27.43;22.57;96948.91;6246843;28;19921;-68
2022/05/31 11:14:27;;;;;;;;;;;;;;;28.01;21.18;96949.25;6246561;28;19921;-68
2022/05/31 11:17:48;;;;;;;;;;;;;;;28.07;21.31;96948.41;6245497;28;20068;-68
2022/05/31 11:20:59;;;;;;;;;;;;;;;26.95;22.31;96938.13;6246728;28;19921;-67
2022/05/31 11:24:20;;;;;;;;;;;;;;;25.59;23.71;96926.75;6246030;28;19927;-67
2022/05/31 11:27:38;;;;;;;;;;;;;;;25.16;24.35;96926.72;6246452;28;19964;-68
2022/05/31 11:30:53;;;;;;;;;;;;;;;24.95;24.73;96939.09;6246270;28;20392;-67
2022/05/31 11:34:13;;;;;;;;;;;;;;;24.92;25.21;96920.63;6246335;28;19921;-68
2022/05/31 11:37:27;;;;;;;;;;;;;;;25.17;24.45;96928.41;6244892;28;20359;-67
2022/05/31 11:40:34;;;;;;;;;;;;;;;24.96;24.43;96924.59;6245345;28;19924;-68
2022/05/31 11:43:42;;;;;;;;;;;;;;;24.79;25.16;96931.22;6245420;28;19921;-67
2022/05/31 11:46:53;;;;;;;;;;;;;;;24.58;25.64;96918.53;6245556;28;20011;-68
2022/05/31 11:50:09;;;;;;;;;;;;;;;24.59;25.80;96931.78;6245986;28;19927;-67
2022/05/31 11:53:24;;;;;;;;;;;;;;;24.50;26.17;96922.16;6246222;28;20423;-67
2022/05/31 11:56:37;;;;;;;;;;;;;;;24.20;26.09;96932.88;6245798;28;20019;-67
2022/05/31 11:59:47;;;;;;;;;;;;;;;23.95;26.52;96929.56;6245914;28;19921;-68
2022/05/31 12:02:55;;;;;;;;;;;;;;;23.95;27.19;96931.44;6245647;28;19925;-66
2022/05/31 12:06:03;;;;;;;;;;;;;;;23.73;27.23;96931.28;6245685;28;19921;-66
2022/05/31 12:09:15;;;;;;;;;;;;;;;23.83;26.84;96940.94;6245781;28;19936;-66
2022/05/31 12:12:30;;;;;;;;;;;;;;;24.46;26.30;96937.00;6245569;28;20304;-67
2022/05/31 12:15:38;;;;;;;;;;;;;;;24.80;26.22;96927.53;6245486;28;19920;-67
2022/05/31 12:18:45;;;;;;;;;;;;;;;24.80;26.09;96932.91;6245232;28;19928;-67
2022/05/31 12:22:05;;;;;;;;;;;;;;;24.92;26.05;96936.78;6245245;28;19928;-67
2022/05/31 12:25:10;;;;;;;;;;;;;;;24.77;26.02;96938.63;6245222;28;19940;-67
2022/05/31 12:28:22;;;;;;;;;;;;;;;24.78;26.01;96924.16;6245174;28;20354;-67
2022/05/31 12:31:26;;;;;;;;;;;;;;;24.62;26.27;96925.19;6245451;28;19925;-68
2022/05/31 12:34:31;;;;;;;;;;;;;;;24.08;26.58;96936.16;6246144;28;19925;-67
2022/05/31 12:37:51;;;;;;;;;;;;;;;23.35;27.69;96926.84;6249945;28;19921;-68
2022/05/31 12:40:53;;;;;;;;;;;;;;;22.83;28.54;96917.53;6249090;28;19944;-67
2022/05/31 12:43:57;;;;;;;;;;;;;;;22.47;29.34;96934.09;6249824;28;19967;-69
2022/05/31 12:47:19;;;;;;;;;;;;;;;22.24;29.81;96928.66;6248937;28;19920;-67
2022/05/31 12:50:41;;;;;;;;;;;;;;;21.89;30.45;96925.34;6249589;28;19944;-68
2022/05/31 12:53:42;;;;;;;;;;;;;;;21.71;30.39;96930.88;6249221;28;19928;-67
2022/05/31 12:56:56;;;;;;;;;;;;;;;21.66;30.73;96921.69;6249228;28;19921;-68
2022/05/31 13:00:04;;;;;;;;;;;;;;;21.45;31.19;96925.66;6249296;28;20396;-68
2022/05/31 13:03:25;;;;;;;;;;;;;;;21.40;30.92;96941.41;6249372;28;19921;-69
2022/05/31 13:06:29;;;;;;;;;;;;;;;21.47;31.32;96926.34;6249164;28;19943;-67
2022/05/31 13:09:35;;;;;;;;;;;;;;;22.02;30.64;96940.03;6249886;28;20439;-67
2022/05/31 13:19:37;;;;;;;;;;;;;;;21.74;31.41;96949.28;6249363;28;20427;-70
2022/05/31 13:22:44;;;;;;;;;;;;;;;21.78;31.29;96944.44;6249089;28;19921;-68
2022/05/31 13:26:00;;;;;;;;;;;;;;;21.46;31.86;96945.25;6248949;28;19956;-68
2022/05/31 13:29:07;;;;;;;;;;;;;;;21.46;31.97;96940.75;6249257;28;19921;-68
2022/05/31 13:32:11;;;;;;;;;;;;;;;21.43;32.16;96945.56;6249257;28;20410;-68
2022/05/31 13:35:19;;;;;;;;;;;;;;;21.48;32.07;96945.91;6248528;28;19921;-68
2022/05/31 13:38:26;;;;;;;;;;;;;;;21.60;31.64;96954.44;6248521;28;19924;-67
2022/05/31 13:41:29;;;;;;;;;;;;;;;21.25;32.22;96954.53;6248835;28;19920;-68
2022/05/31 13:44:33;;;;;;;;;;;;;;;20.91;32.88;96951.94;6248382;28;19928;-67
2022/05/31 13:47:56;;;;;;;;;;;;;;;20.83;33.25;96955.44;6247883;28;20388;-68
2022/05/31 13:51:05;;;;;;;;;;;;;;;20.83;33.80;96957.25;6248163;28;20338;-69
2022/05/31 13:54:11;;;;;;;;;;;;;;;20.70;33.85;96976.44;6248578;28;19927;-68
2022/05/31 13:57:17;;;;;;;;;;;;;;;20.57;33.93;96966.19;6248453;28;20430;-68
2022/05/31 14:00:40;;;;;;;;;;;;;;;20.55;34.54;96976.22;6248063;28;19921;-67
2022/05/31 14:03:41;;;;;;;;;;;;;;;20.40;34.69;96965.22;6247820;28;19920;-68
2022/05/31 14:06:46;;;;;;;;;;;;;;;20.42;34.43;96962.41;6248161;28;19921;-68
2022/05/31 14:09:54;;;;;;;;;;;;;;;20.45;34.37;96966.59;6248013;28;19936;-67
2022/05/31 14:13:00;;;;;;;;;;;;;;;20.36;34.57;96957.69;6248081;28;19927;-67
2022/05/31 14:16:16;;;;;;;;;;;;;;;20.39;34.38;96960.06;6247699;28;20300;-68
2022/05/31 14:19:18;;;;;;;;;;;;;;;20.33;34.92;96964.19;6246889;28;20410;-68
2022/05/31 14:22:25;;;;;;;;;;;;;;;20.28;35.19;96965.66;6247922;28;19921;-68
2022/05/31 14:25:28;;;;;;;;;;;;;;;20.00;35.56;96976.50;6247683;28;19928;-68
2022/05/31 14:28:32;;;;;;;;;;;;;;;19.84;35.63;96971.03;6247819;28;20371;-67
2022/05/31 14:31:38;;;;;;;;;;;;;;;19.58;36.14;96969.13;6247481;28;19928;-68
2022/05/31 14:34:45;;;;;;;;;;;;;;;19.51;35.99;96978.75;6247496;28;19920;-68
2022/05/31 14:37:50;;;;;;;;;;;;;;;19.29;36.45;96980.84;6247176;28;20000;-68
2022/05/31 14:40:56;;;;;;;;;;;;;;;19.11;37.10;96982.69;6247425;28;19924;-68
2022/05/31 14:44:01;;;;;;;;;;;;;;;18.93;37.32;96984.44;6247375;28;19991;-68
2022/05/31 14:47:09;;;;;;;;;;;;;;;18.95;37.55;96990.47;6247115;28;19968;-68
2022/05/31 14:50:14;;;;;;;;;;;;;;;19.10;37.34;96991.66;6247067;28;19956;-69
2022/05/31 14:53:17;;;;;;;;;;;;;;;18.90;37.91;96993.59;6247291;28;20006;-68
2022/05/31 14:56:25;;;;;;;;;;;;;;;18.61;37.90;96991.03;6246908;28;20400;-69
2022/05/31 14:59:28;;;;;;;;;;;;;;;18.60;38.21;96995.53;6246375;28;19939;-67
2022/05/31 15:02:33;;;;;;;;;;;;;;;18.66;38.55;96994.09;6246901;28;19921;-67
2022/05/31 15:05:37;;;;;;;;;;;;;;;18.58;38.34;96997.50;6247031;28;20366;-67
2022/05/31 15:08:38;;;;;;;;;;;;;;;18.51;38.98;97003.53;6246428;28;20037;-67
2022/05/31 15:21:45;;;;;;;;;;;;;;;18.29;40.62;97020.75;6246409;28;19920;-68
2022/05/31 15:24:51;;;;;;;;;;;;;;;18.22;40.77;97025.78;6246135;28;19925;-68
2022/05/31 15:27:53;;;;;;;;;;;;;;;18.14;40.70;97015.84;6246330;28;19921;-67
2022/05/31 15:30:57;;;;;;;;;;;;;;;18.13;41.38;97023.97;6244716;28;19920;-68
2022/05/31 15:34:01;;;;;;;;;;;;;;;18.07;41.57;97024.56;6246072;28;20319;-67
2022/05/31 15:37:07;;;;;;;;;;;;;;;17.95;42.04;97022.06;6246004;28;19966;-68
2022/05/31 15:40:10;;;;;;;;;;;;;;;17.84;41.94;97024.84;6244547;28;19951;-67
2022/05/31 15:43:51;;;;;;;;;;;;;;;17.86;42.24;97030.03;6246356;28;19921;-68
2022/05/31 15:46:38;;;;;;;;;;;;;;;17.88;42.68;97026.25;6245354;28;19932;-69
2022/05/31 15:49:40;;;;;;;;;;;;;;;17.77;42.77;97028.19;6245855;28;20023;-68
2022/05/31 15:52:43;;;;;;;;;;;;;;;17.64;42.89;97033.81;6246383;28;20008;-68
2022/05/31 15:55:46;;;;;;;;;;;;;;;17.56;43.46;97036.31;6245454;28;19921;-68
2022/05/31 15:58:50;;;;;;;;;;;;;;;17.39;43.80;97041.31;6245696;28;19932;-68
2022/05/31 16:01:52;;;;;;;;;;;;;;;17.19;44.13;97044.94;6245666;28;20011;-67
2022/05/31 16:04:54;;;;;;;;;;;;;;;17.10;44.35;97043.06;6245322;28;19986;-67
2022/05/31 16:07:55;;;;;;;;;;;;;;;17.06;44.33;97053.97;6245565;28;19924;-68
2022/05/31 16:10:56;;;;;;;;;;;;;;;17.13;45.00;97053.47;6252729;28;19928;-68
2022/05/31 16:13:57;;;;;;;;;;;;;;;17.09;44.64;97049.38;6253751;28;19916;-69
2022/05/31 16:16:58;;;;;;;;;;;;;;;17.07;44.78;97057.50;6253513;28;19921;-68
2022/05/31 16:20:02;;;;;;;;;;;;;;;17.12;45.02;97051.75;6253601;28;19921;-68
2022/05/31 16:23:04;;;;;;;;;;;;;;;17.09;45.41;97065.31;6253639;28;19928;-67
2022/05/31 16:26:07;;;;;;;;;;;;;;;17.01;45.38;97058.00;6253911;28;19925;-68
2022/05/31 16:29:10;;;;;;;;;;;;;;;16.94;45.48;97073.69;6253972;28;19936;-68
2022/05/31 16:32:14;;;;;;;;;;;;;;;16.95;45.77;97075.34;6253439;28;19964;-68
2022/05/31 16:35:19;;;;;;;;;;;;;;;16.98;45.86;97079.56;6253999;28;19921;-66
2022/05/31 16:41:45;;;;;;;;;;;;;;;16.93;45.77;97087.09;6253419;28;19927;-69
2022/05/31 16:44:47;;;;;;;;;;;;;;;16.93;45.87;97093.28;6253287;28;19921;-68
2022/05/31 16:47:48;;;;;;;;;;;;;;;16.93;45.90;97098.59;6253804;28;19921;-69
2022/05/31 16:50:49;;;;;;;;;;;;;;;16.92;45.90;97099.53;6253544;28;19928;-68
2022/05/31 16:53:51;;;;;;;;;;;;;;;16.91;46.07;97105.84;6254465;28;19921;-68